Time;durP1;ratioP1;P1;durP2;ratioP2;P2;SDS_P1;SDS_P2;PMS_P1;PMS_P2;Temp;Humidity;BMP_temperature;BMP_pressure;BME280_temperature;BME280_humidity;BME280_pressure;Samples;Min_cycle;Max_cycle;Signal;HPM_P1;HPM_P2
2021/11/29 00:00:43;;;;;;;8.20;4.05;;;;;;;;;;4990696;28;20191;-83
2021/11/29 00:03:10;;;;;;;8.93;2.78;;;;;;;;;;4991089;28;20204;-83
2021/11/29 00:05:36;;;;;;;4.18;2.60;;;;;;;;;;4976512;28;20579;-81
2021/11/29 00:08:03;;;;;;;7.50;3.75;;;;;;;;;;4980166;28;20239;-83
2021/11/29 00:10:31;;;;;;;3.60;3.13;;;;;;;;;;4978300;28;20172;-81
2021/11/29 00:12:57;;;;;;;5.80;4.28;;;;;;;;;;4991445;28;20179;-82
2021/11/29 00:15:24;;;;;;;5.15;3.15;;;;;;;;;;4988921;28;20238;-82
2021/11/29 00:17:50;;;;;;;3.65;2.50;;;;;;;;;;4977053;28;20215;-82
2021/11/29 00:20:16;;;;;;;6.43;3.50;;;;;;;;;;4993665;28;20248;-82
2021/11/29 00:22:43;;;;;;;6.50;3.33;;;;;;;;;;4975901;28;20194;-82
2021/11/29 00:25:09;;;;;;;3.92;3.00;;;;;;;;;;4992426;28;20214;-82
2021/11/29 00:27:36;;;;;;;5.05;2.92;;;;;;;;;;4995304;28;20187;-82
2021/11/29 00:30:03;;;;;;;3.65;2.50;;;;;;;;;;4979565;28;20275;-82
2021/11/29 00:32:29;;;;;;;4.75;3.20;;;;;;;;;;4998311;28;20183;-82
2021/11/29 00:34:55;;;;;;;6.43;3.30;;;;;;;;;;4974755;28;20677;-82
2021/11/29 00:37:21;;;;;;;6.97;2.30;;;;;;;;;;4978635;28;20184;-82
2021/11/29 00:39:46;;;;;;;6.30;2.83;;;;;;;;;;4993231;28;20251;-82
2021/11/29 00:42:12;;;;;;;3.55;2.50;;;;;;;;;;4990463;28;20227;-82
2021/11/29 00:44:38;;;;;;;7.13;3.20;;;;;;;;;;4979679;28;20216;-83
2021/11/29 00:47:05;;;;;;;4.22;2.30;;;;;;;;;;4976256;28;20188;-83
2021/11/29 00:49:30;;;;;;;3.67;2.83;;;;;;;;;;4978231;28;20614;-82
2021/11/29 00:51:56;;;;;;;4.55;2.55;;;;;;;;;;4976524;28;20187;-82
2021/11/29 00:54:22;;;;;;;7.75;3.55;;;;;;;;;;4994969;28;20188;-82
2021/11/29 00:56:48;;;;;;;4.40;2.75;;;;;;;;;;4996110;28;20260;-82
2021/11/29 00:59:15;;;;;;;4.68;3.28;;;;;;;;;;4998858;28;20189;-82
2021/11/29 01:01:41;;;;;;;2.92;2.20;;;;;;;;;;4980265;28;20180;-82
2021/11/29 01:04:07;;;;;;;3.65;2.55;;;;;;;;;;4996150;28;20206;-82
2021/11/29 01:06:32;;;;;;;5.72;3.05;;;;;;;;;;4992897;28;20275;-82
2021/11/29 01:08:58;;;;;;;3.45;3.15;;;;;;;;;;4980124;28;20192;-82
2021/11/29 01:11:24;;;;;;;5.57;2.65;;;;;;;;;;4998361;28;20645;-82
2021/11/29 01:13:50;;;;;;;2.50;2.22;;;;;;;;;;4978182;28;20196;-82
2021/11/29 01:16:16;;;;;;;3.35;2.20;;;;;;;;;;4995814;28;20224;-82
2021/11/29 01:18:42;;;;;;;4.45;2.67;;;;;;;;;;4993550;28;20190;-82
2021/11/29 01:21:08;;;;;;;3.17;2.17;;;;;;;;;;4992608;28;20188;-82
2021/11/29 01:23:34;;;;;;;3.10;2.15;;;;;;;;;;4997751;28;20275;-82
2021/11/29 01:26:00;;;;;;;3.92;2.10;;;;;;;;;;4994099;28;20259;-82
2021/11/29 01:28:27;;;;;;;8.43;2.55;;;;;;;;;;4981076;28;20621;-82
2021/11/29 01:30:53;;;;;;;4.20;2.03;;;;;;;;;;5009780;28;20180;-82
2021/11/29 01:33:20;;;;;;;3.45;2.42;;;;;;;;;;4977922;28;20188;-82
2021/11/29 01:35:46;;;;;;;2.40;2.20;;;;;;;;;;4996131;28;20660;-82
2021/11/29 01:38:12;;;;;;;2.95;2.53;;;;;;;;;;4995558;28;20207;-82
2021/11/29 01:40:38;;;;;;;4.20;2.55;;;;;;;;;;4982002;28;20545;-82
2021/11/29 01:43:08;;;;;;;3.33;2.08;;;;;;;;;;4979988;28;20183;-82
2021/11/29 01:45:36;;;;;;;5.22;2.20;;;;;;;;;;4991644;28;20188;-82
2021/11/29 01:48:02;;;;;;;6.93;2.65;;;;;;;;;;4983651;28;20645;-82
2021/11/29 01:50:28;;;;;;;4.82;1.90;;;;;;;;;;4981514;28;20708;-82
2021/11/29 01:52:54;;;;;;;3.63;2.25;;;;;;;;;;4980236;28;20180;-82
2021/11/29 01:55:21;;;;;;;4.78;2.47;;;;;;;;;;5000103;28;20180;-82
2021/11/29 01:57:47;;;;;;;2.40;1.80;;;;;;;;;;4977689;28;20195;-82
2021/11/29 02:00:15;;;;;;;3.60;1.90;;;;;;;;;;4993443;28;20220;-82
2021/11/29 02:02:41;;;;;;;7.53;2.00;;;;;;;;;;4996118;28;20191;-83
2021/11/29 02:05:07;;;;;;;4.15;1.70;;;;;;;;;;4996041;28;20232;-82
2021/11/29 02:07:33;;;;;;;3.85;2.60;;;;;;;;;;4977905;28;20565;-82
2021/11/29 02:09:59;;;;;;;7.25;2.35;;;;;;;;;;4979023;28;20172;-82
2021/11/29 02:12:25;;;;;;;3.05;1.95;;;;;;;;;;4978039;28;20188;-82
2021/11/29 02:14:51;;;;;;;3.75;2.38;;;;;;;;;;4994345;28;20200;-82
2021/11/29 02:17:17;;;;;;;3.63;2.15;;;;;;;;;;4994822;28;20202;-82
2021/11/29 02:19:46;;;;;;;3.58;2.60;;;;;;;;;;4976924;28;20208;-82
2021/11/29 02:22:13;;;;;;;4.95;2.03;;;;;;;;;;4980259;28;20187;-82
2021/11/29 02:24:39;;;;;;;2.85;1.90;;;;;;;;;;4977737;28;20453;-82
2021/11/29 02:27:06;;;;;;;3.30;2.13;;;;;;;;;;4994290;28;20970;-82
2021/11/29 02:29:32;;;;;;;3.45;1.98;;;;;;;;;;4983702;28;20199;-83
2021/11/29 02:31:59;;;;;;;5.10;2.60;;;;;;;;;;4992719;28;20215;-82
2021/11/29 02:34:27;;;;;;;3.03;1.80;;;;;;;;;;4986230;28;20211;-82
2021/11/29 02:36:54;;;;;;;4.80;2.10;;;;;;;;;;4993908;28;20191;-82
2021/11/29 02:39:20;;;;;;;2.05;1.70;;;;;;;;;;4992782;28;20196;-82
2021/11/29 02:41:47;;;;;;;3.28;1.75;;;;;;;;;;4980106;28;20184;-83
2021/11/29 02:44:14;;;;;;;4.18;2.58;;;;;;;;;;4979296;28;20268;-82
2021/11/29 02:46:40;;;;;;;5.53;1.65;;;;;;;;;;4978637;28;20191;-82
2021/11/29 02:49:07;;;;;;;2.20;1.73;;;;;;;;;;4979229;28;20186;-82
2021/11/29 02:51:34;;;;;;;3.92;1.90;;;;;;;;;;4991451;28;20226;-82
2021/11/29 02:54:03;;;;;;;6.38;2.13;;;;;;;;;;4993679;28;20184;-82
2021/11/29 02:56:29;;;;;;;2.72;2.08;;;;;;;;;;4996347;28;20199;-82
2021/11/29 02:58:55;;;;;;;2.95;1.90;;;;;;;;;;4992025;28;20183;-82
2021/11/29 03:01:23;;;;;;;5.07;2.92;;;;;;;;;;4985022;28;20207;-82
2021/11/29 03:03:50;;;;;;;3.78;1.90;;;;;;;;;;4992607;28;20207;-83
2021/11/29 03:06:16;;;;;;;7.72;1.92;;;;;;;;;;4980300;28;20190;-82
2021/11/29 03:08:42;;;;;;;5.20;2.15;;;;;;;;;;4994949;28;20184;-82
2021/11/29 03:11:09;;;;;;;3.63;1.65;;;;;;;;;;4978041;28;20584;-82
2021/11/29 03:13:35;;;;;;;3.88;2.28;;;;;;;;;;4977855;28;20270;-82
2021/11/29 03:16:01;;;;;;;4.32;2.20;;;;;;;;;;4991654;28;20295;-82
2021/11/29 03:18:34;;;;;;;2.75;1.90;;;;;;;;;;4991679;28;20191;-82
2021/11/29 03:21:00;;;;;;;5.60;2.50;;;;;;;;;;4992049;28;20212;-82
2021/11/29 03:23:26;;;;;;;1.98;1.58;;;;;;;;;;4996291;28;20203;-82
2021/11/29 03:25:52;;;;;;;3.15;2.25;;;;;;;;;;4975706;28;20247;-81
2021/11/29 03:28:18;;;;;;;3.55;1.95;;;;;;;;;;4999376;28;20356;-82
2021/11/29 03:30:44;;;;;;;2.35;2.15;;;;;;;;;;4975722;28;20198;-82
2021/11/29 03:33:10;;;;;;;4.35;2.58;;;;;;;;;;4991070;28;20702;-82
2021/11/29 03:35:36;;;;;;;2.50;1.95;;;;;;;;;;4980653;28;20243;-82
2021/11/29 03:38:03;;;;;;;2.65;2.00;;;;;;;;;;4977290;28;20196;-82
2021/11/29 03:40:29;;;;;;;2.63;2.42;;;;;;;;;;4978017;28;20176;-82
2021/11/29 03:42:56;;;;;;;4.07;2.72;;;;;;;;;;4977042;28;20620;-82
2021/11/29 03:45:22;;;;;;;2.85;2.10;;;;;;;;;;4989797;28;20263;-82
2021/11/29 03:47:48;;;;;;;3.63;2.55;;;;;;;;;;4994007;28;20211;-82
2021/11/29 03:50:14;;;;;;;3.90;2.15;;;;;;;;;;4978571;28;20184;-82
2021/11/29 03:52:40;;;;;;;2.20;1.98;;;;;;;;;;4978327;28;20183;-82
2021/11/29 03:55:06;;;;;;;4.38;2.00;;;;;;;;;;4992045;28;20223;-82
2021/11/29 03:57:32;;;;;;;2.70;1.90;;;;;;;;;;4990883;28;20540;-82
2021/11/29 03:59:58;;;;;;;2.90;1.77;;;;;;;;;;4991812;28;20197;-82
2021/11/29 04:02:24;;;;;;;2.97;2.40;;;;;;;;;;4996880;28;20194;-82
2021/11/29 04:04:50;;;;;;;2.60;2.15;;;;;;;;;;4976122;28;20216;-82
2021/11/29 04:07:16;;;;;;;3.75;1.90;;;;;;;;;;4993723;28;20206;-82
2021/11/29 04:09:42;;;;;;;3.17;2.10;;;;;;;;;;4990529;28;20190;-82
2021/11/29 04:12:09;;;;;;;2.28;2.08;;;;;;;;;;4990360;28;20252;-82
2021/11/29 04:14:35;;;;;;;2.00;1.88;;;;;;;;;;4968275;28;20251;-82
2021/11/29 04:17:01;;;;;;;3.65;1.63;;;;;;;;;;4980356;28;20262;-82
2021/11/29 04:19:27;;;;;;;1.95;1.52;;;;;;;;;;4978617;28;20195;-82
2021/11/29 04:21:54;;;;;;;3.60;2.00;;;;;;;;;;4992069;28;20198;-82
2021/11/29 04:24:20;;;;;;;4.95;2.10;;;;;;;;;;4996732;28;20211;-82
2021/11/29 04:26:51;;;;;;;3.75;1.85;;;;;;;;;;4977604;28;20191;-82
2021/11/29 04:29:21;;;;;;;3.33;1.73;;;;;;;;;;4992888;28;20195;-82
2021/11/29 04:31:47;;;;;;;3.25;2.00;;;;;;;;;;4979829;28;20262;-82
2021/11/29 04:34:13;;;;;;;2.53;2.33;;;;;;;;;;4996938;28;20203;-82
2021/11/29 04:36:39;;;;;;;2.80;1.77;;;;;;;;;;4984011;28;20199;-82
2021/11/29 04:39:06;;;;;;;3.45;1.90;;;;;;;;;;4994690;28;20195;-82
2021/11/29 04:41:32;;;;;;;3.50;1.52;;;;;;;;;;4998549;28;20194;-82
2021/11/29 04:43:58;;;;;;;3.95;2.40;;;;;;;;;;4993969;28;20208;-82
2021/11/29 04:46:24;;;;;;;2.80;1.95;;;;;;;;;;4981798;28;20180;-82
2021/11/29 04:48:50;;;;;;;2.70;1.92;;;;;;;;;;4994158;28;20207;-82
2021/11/29 04:51:16;;;;;;;4.30;2.03;;;;;;;;;;4982019;28;20188;-82
2021/11/29 04:53:42;;;;;;;3.25;1.95;;;;;;;;;;4998647;28;20239;-82
2021/11/29 04:56:08;;;;;;;3.40;1.75;;;;;;;;;;4999355;28;20235;-82
2021/11/29 04:58:35;;;;;;;2.22;2.00;;;;;;;;;;4979824;28;20180;-82
2021/11/29 05:01:01;;;;;;;7.90;1.95;;;;;;;;;;4994163;28;20211;-82
2021/11/29 05:03:27;;;;;;;1.92;1.73;;;;;;;;;;4980361;28;20199;-82
2021/11/29 05:05:53;;;;;;;2.80;1.60;;;;;;;;;;4995727;28;20184;-82
2021/11/29 05:08:19;;;;;;;2.78;1.90;;;;;;;;;;4981861;28;20226;-81
2021/11/29 05:10:45;;;;;;;4.25;2.70;;;;;;;;;;4979313;28;20182;-81
2021/11/29 05:13:12;;;;;;;2.75;1.70;;;;;;;;;;4995266;28;20168;-81
2021/11/29 05:15:38;;;;;;;2.03;1.70;;;;;;;;;;4977738;28;20216;-81
2021/11/29 05:18:04;;;;;;;6.15;2.28;;;;;;;;;;4979415;28;20189;-81
2021/11/29 05:20:30;;;;;;;4.57;1.80;;;;;;;;;;4998036;28;20180;-82
2021/11/29 05:22:56;;;;;;;1.95;1.63;;;;;;;;;;4993848;28;20198;-82
2021/11/29 05:25:22;;;;;;;3.28;2.20;;;;;;;;;;5000297;28;20207;-81
2021/11/29 05:27:48;;;;;;;1.90;1.75;;;;;;;;;;4992426;28;20596;-81
2021/11/29 05:30:14;;;;;;;2.65;1.52;;;;;;;;;;4978308;28;20537;-81
2021/11/29 05:32:40;;;;;;;2.97;2.30;;;;;;;;;;4997302;28;20187;-81
2021/11/29 05:35:07;;;;;;;4.75;2.63;;;;;;;;;;4980110;28;20189;-81
2021/11/29 05:37:33;;;;;;;2.55;1.80;;;;;;;;;;4979641;28;20300;-82
2021/11/29 05:39:59;;;;;;;3.20;1.63;;;;;;;;;;4994504;28;20544;-81
2021/11/29 05:42:25;;;;;;;2.35;1.45;;;;;;;;;;4979001;28;20260;-81
2021/11/29 05:44:51;;;;;;;6.93;1.73;;;;;;;;;;4995522;28;20216;-81
2021/11/29 05:47:20;;;;;;;4.80;2.17;;;;;;;;;;4997321;28;20188;-81
2021/11/29 05:49:47;;;;;;;6.00;1.70;;;;;;;;;;4997982;28;20184;-81
2021/11/29 05:52:13;;;;;;;5.82;3.45;;;;;;;;;;4997863;28;20192;-82
2021/11/29 05:54:40;;;;;;;4.45;2.85;;;;;;;;;;4977642;28;20191;-81
2021/11/29 05:57:06;;;;;;;7.22;1.95;;;;;;;;;;4992780;28;20184;-81
2021/11/29 05:59:32;;;;;;;4.40;2.40;;;;;;;;;;4997365;28;20215;-81
2021/11/29 06:01:58;;;;;;;5.75;3.92;;;;;;;;;;4995337;28;20183;-81
2021/11/29 06:04:24;;;;;;;13.95;7.03;;;;;;;;;;4997961;28;20211;-81
2021/11/29 06:06:50;;;;;;;7.40;3.78;;;;;;;;;;4977888;28;20192;-80
2021/11/29 06:09:17;;;;;;;3.38;2.60;;;;;;;;;;4992698;28;20180;-81
2021/11/29 06:11:43;;;;;;;5.60;2.03;;;;;;;;;;4980501;28;20326;-81
2021/11/29 06:14:09;;;;;;;2.75;1.80;;;;;;;;;;4980107;28;20650;-81
2021/11/29 06:16:35;;;;;;;2.40;1.95;;;;;;;;;;4977251;28;20236;-81
2021/11/29 06:19:01;;;;;;;2.92;2.05;;;;;;;;;;4987047;28;20242;-81
2021/11/29 06:21:27;;;;;;;4.15;1.80;;;;;;;;;;4981326;28;20176;-81
2021/11/29 06:23:53;;;;;;;4.40;1.77;;;;;;;;;;4994808;28;20231;-81
2021/11/29 06:26:20;;;;;;;3.15;2.08;;;;;;;;;;4995011;28;20176;-80
2021/11/29 06:28:46;;;;;;;4.90;2.05;;;;;;;;;;4978101;28;20180;-81
2021/11/29 06:31:12;;;;;;;2.78;2.20;;;;;;;;;;4994192;28;20404;-81
2021/11/29 06:33:38;;;;;;;3.75;2.08;;;;;;;;;;4992442;28;20428;-81
2021/11/29 06:36:04;;;;;;;2.60;2.40;;;;;;;;;;4978654;28;20191;-81
2021/11/29 06:38:30;;;;;;;5.93;2.47;;;;;;;;;;4981249;28;20215;-81
2021/11/29 06:40:57;;;;;;;3.88;2.10;;;;;;;;;;4993358;28;20187;-81
2021/11/29 06:43:24;;;;;;;2.88;2.30;;;;;;;;;;4980368;28;20198;-81
2021/11/29 06:45:50;;;;;;;4.72;2.60;;;;;;;;;;4976243;28;20769;-81
2021/11/29 06:48:17;;;;;;;3.22;2.28;;;;;;;;;;4994094;28;20184;-81
2021/11/29 06:50:43;;;;;;;4.45;2.70;;;;;;;;;;4981993;28;20288;-81
2021/11/29 06:53:09;;;;;;;4.65;2.25;;;;;;;;;;4995789;28;20187;-81
2021/11/29 06:55:35;;;;;;;3.35;2.25;;;;;;;;;;4983153;28;20187;-81
2021/11/29 06:58:02;;;;;;;3.40;2.20;;;;;;;;;;4993264;28;20203;-81
2021/11/29 07:00:28;;;;;;;3.08;2.22;;;;;;;;;;4978273;28;20628;-81
2021/11/29 07:02:55;;;;;;;2.72;2.20;;;;;;;;;;4983567;28;20712;-81
2021/11/29 07:05:22;;;;;;;2.53;2.20;;;;;;;;;;4981895;28;20224;-81
2021/11/29 07:07:50;;;;;;;6.18;2.67;;;;;;;;;;4983524;28;20217;-81
2021/11/29 07:10:16;;;;;;;5.85;3.17;;;;;;;;;;4994459;28;20239;-80
2021/11/29 07:12:43;;;;;;;3.65;2.85;;;;;;;;;;4977207;28;20184;-81
2021/11/29 07:15:10;;;;;;;5.82;2.70;;;;;;;;;;4991527;28;20224;-80
2021/11/29 07:17:36;;;;;;;4.10;3.50;;;;;;;;;;5005206;28;20187;-80
2021/11/29 07:20:02;;;;;;;2.55;2.35;;;;;;;;;;4992550;28;20195;-81
2021/11/29 07:22:28;;;;;;;5.20;3.60;;;;;;;;;;4977898;28;20183;-82
2021/11/29 07:24:54;;;;;;;4.57;3.28;;;;;;;;;;4992453;28;20207;-81
2021/11/29 07:27:22;;;;;;;3.20;2.70;;;;;;;;;;4976695;28;20200;-81
2021/11/29 07:29:51;;;;;;;4.63;3.55;;;;;;;;;;4994086;28;20211;-81
2021/11/29 07:32:17;;;;;;;5.13;3.97;;;;;;;;;;4993433;28;20173;-81
2021/11/29 07:34:43;;;;;;;4.10;3.55;;;;;;;;;;4998487;28;20187;-81
2021/11/29 07:37:09;;;;;;;3.72;3.35;;;;;;;;;;4992423;28;20234;-79
2021/11/29 07:39:35;;;;;;;4.47;3.50;;;;;;;;;;4992515;28;20198;-81
2021/11/29 07:42:01;;;;;;;4.15;3.20;;;;;;;;;;4976951;28;20188;-80
2021/11/29 07:44:27;;;;;;;3.78;3.20;;;;;;;;;;4994812;28;20208;-80
2021/11/29 07:46:53;;;;;;;3.63;3.22;;;;;;;;;;4976360;28;20192;-81
2021/11/29 07:49:19;;;;;;;5.30;4.18;;;;;;;;;;4993498;28;20183;-80
2021/11/29 07:51:45;;;;;;;5.43;3.63;;;;;;;;;;4993810;28;20176;-80
2021/11/29 07:54:11;;;;;;;6.07;4.07;;;;;;;;;;4978744;28;20219;-80
2021/11/29 07:56:37;;;;;;;4.38;3.55;;;;;;;;;;4995572;28;20270;-80
2021/11/29 07:59:03;;;;;;;5.25;3.00;;;;;;;;;;4977704;28;20196;-84
2021/11/29 08:01:29;;;;;;;11.00;4.95;;;;;;;;;;5009311;28;20255;-82
2021/11/29 08:03:55;;;;;;;6.32;4.63;;;;;;;;;;4996252;28;20219;-83
2021/11/29 08:06:21;;;;;;;3.80;3.50;;;;;;;;;;4988580;28;20211;-84
2021/11/29 08:08:47;;;;;;;10.77;5.45;;;;;;;;;;4979304;28;20505;-84
2021/11/29 08:11:15;;;;;;;8.07;3.95;;;;;;;;;;4977760;28;20180;-83
2021/11/29 08:13:41;;;;;;;13.77;6.60;;;;;;;;;;4982699;28;20203;-83
2021/11/29 08:16:07;;;;;;;8.30;6.45;;;;;;;;;;4985466;28;20228;-83
2021/11/29 08:18:33;;;;;;;12.13;5.28;;;;;;;;;;4987544;28;20254;-84
2021/11/29 08:20:59;;;;;;;6.50;5.07;;;;;;;;;;4991972;28;20188;-84
2021/11/29 08:23:25;;;;;;;5.10;4.10;;;;;;;;;;4991071;28;20195;-84
2021/11/29 08:25:51;;;;;;;5.95;4.20;;;;;;;;;;5013217;28;20215;-84
2021/11/29 08:28:16;;;;;;;5.07;4.50;;;;;;;;;;4994692;28;20211;-83
2021/11/29 08:30:43;;;;;;;3.92;3.53;;;;;;;;;;4978937;28;20215;-83
2021/11/29 08:33:12;;;;;;;5.28;3.92;;;;;;;;;;4993686;28;20211;-84
2021/11/29 08:35:38;;;;;;;4.53;4.03;;;;;;;;;;4984115;28;20198;-85
2021/11/29 08:38:04;;;;;;;7.35;4.65;;;;;;;;;;4992888;28;20220;-83
2021/11/29 08:40:32;;;;;;;6.20;3.90;;;;;;;;;;4983057;28;20206;-84
2021/11/29 08:43:00;;;;;;;9.27;4.97;;;;;;;;;;4995542;28;20184;-83
2021/11/29 08:45:27;;;;;;;6.90;5.30;;;;;;;;;;4977982;28;20220;-83
2021/11/29 08:47:54;;;;;;;8.20;4.93;;;;;;;;;;4989067;28;20184;-84
2021/11/29 08:50:20;;;;;;;8.73;5.10;;;;;;;;;;4976232;28;20661;-84
2021/11/29 08:52:46;;;;;;;12.95;5.43;;;;;;;;;;4975619;28;20180;-84
2021/11/29 08:55:12;;;;;;;6.28;4.78;;;;;;;;;;4992484;28;20176;-85
2021/11/29 08:57:38;;;;;;;9.52;5.57;;;;;;;;;;4990335;28;20192;-85
2021/11/29 09:00:07;;;;;;;8.05;5.15;;;;;;;;;;4991588;28;20273;-84
2021/11/29 09:02:33;;;;;;;10.57;6.25;;;;;;;;;;4996814;28;20195;-85
2021/11/29 09:04:59;;;;;;;6.65;4.90;;;;;;;;;;4989478;28;20214;-84
2021/11/29 09:07:25;;;;;;;9.70;5.20;;;;;;;;;;5000213;28;20184;-85
2021/11/29 09:09:51;;;;;;;8.32;3.90;;;;;;;;;;4991766;28;20197;-85
2021/11/29 09:12:17;;;;;;;6.55;4.70;;;;;;;;;;4989724;28;20185;-85
2021/11/29 09:14:43;;;;;;;8.15;4.80;;;;;;;;;;4993390;28;20196;-85
2021/11/29 09:17:10;;;;;;;9.85;4.32;;;;;;;;;;4993849;28;20590;-86
2021/11/29 09:19:36;;;;;;;5.65;3.75;;;;;;;;;;4985344;28;20247;-84
2021/11/29 09:22:02;;;;;;;9.60;3.78;;;;;;;;;;4999033;28;20224;-85
2021/11/29 09:24:28;;;;;;;6.55;3.25;;;;;;;;;;4978726;28;20200;-84
2021/11/29 09:26:54;;;;;;;6.00;3.67;;;;;;;;;;4980876;28;20181;-84
2021/11/29 09:29:20;;;;;;;3.47;3.17;;;;;;;;;;4996257;28;20637;-84
2021/11/29 09:31:46;;;;;;;5.32;3.35;;;;;;;;;;4979496;28;20176;-85
2021/11/29 09:34:12;;;;;;;6.13;3.60;;;;;;;;;;4980100;28;20183;-84
2021/11/29 09:36:38;;;;;;;6.85;3.00;;;;;;;;;;4977732;28;20207;-84
2021/11/29 09:39:05;;;;;;;9.77;3.50;;;;;;;;;;4990943;28;20248;-84
2021/11/29 09:41:31;;;;;;;3.42;3.13;;;;;;;;;;4997973;28;20180;-85
2021/11/29 09:43:59;;;;;;;6.65;3.78;;;;;;;;;;4997791;28;20212;-85
2021/11/29 09:46:26;;;;;;;4.60;3.08;;;;;;;;;;4981972;28;20272;-85
2021/11/29 09:48:52;;;;;;;6.47;3.85;;;;;;;;;;4998728;28;20196;-85
2021/11/29 09:51:18;;;;;;;4.88;3.30;;;;;;;;;;4994357;28;20180;-84
2021/11/29 09:53:44;;;;;;;7.45;3.30;;;;;;;;;;4997299;28;20247;-85
2021/11/29 09:56:11;;;;;;;5.15;3.10;;;;;;;;;;4998360;28;20185;-85
2021/11/29 09:58:37;;;;;;;5.47;4.15;;;;;;;;;;4975353;28;20176;-85
2021/11/29 10:01:04;;;;;;;6.70;3.30;;;;;;;;;;4997164;28;20234;-84
2021/11/29 10:03:31;;;;;;;3.53;3.20;;;;;;;;;;4975161;28;20206;-86
2021/11/29 10:05:57;;;;;;;8.88;3.70;;;;;;;;;;4995920;28;20185;-86
2021/11/29 10:08:23;;;;;;;2.88;2.65;;;;;;;;;;4982631;28;20235;-85
2021/11/29 10:10:54;;;;;;;3.15;2.10;;;;;;;;;;4979521;28;20229;-86
2021/11/29 10:13:21;;;;;;;2.28;1.98;;;;;;;;;;4986352;28;20199;-86
2021/11/29 10:15:47;;;;;;;5.97;2.13;;;;;;;;;;4979591;28;20228;-86
2021/11/29 10:18:13;;;;;;;4.32;2.33;;;;;;;;;;4979401;28;20654;-86
2021/11/29 10:20:58;;;;;;;5.32;2.70;;;;;;;;;;4997616;28;20183;-86
2021/11/29 10:23:46;;;;;;;3.40;2.35;;;;;;;;;;4997543;28;20183;-86
2021/11/29 10:26:12;;;;;;;5.57;2.17;;;;;;;;;;5012773;28;20238;-86
2021/11/29 10:28:42;;;;;;;4.33;2.40;;;;;;;;;;4977642;28;20184;-86
2021/11/29 10:31:13;;;;;;;4.47;2.53;;;;;;;;;;4983729;28;20465;-86
2021/11/29 10:33:47;;;;;;;4.78;2.30;;;;;;;;;;4991908;28;20187;-87
2021/11/29 10:36:14;;;;;;;1.95;1.80;;;;;;;;;;4981585;28;20183;-86
2021/11/29 10:38:41;;;;;;;4.05;1.95;;;;;;;;;;4979991;28;20196;-85
2021/11/29 10:41:08;;;;;;;7.20;3.15;;;;;;;;;;4981619;28;20185;-85
2021/11/29 10:43:41;;;;;;;4.50;3.55;;;;;;;;;;4978383;28;20172;-85
2021/11/29 10:46:40;;;;;;;3.47;2.85;;;;;;;;;;4994692;28;20180;-87
2021/11/29 10:49:08;;;;;;;6.75;3.20;;;;;;;;;;4999266;28;20188;-85
2021/11/29 10:51:35;;;;;;;4.43;2.85;;;;;;;;;;4982685;28;20255;-86
2021/11/29 10:54:08;;;;;;;3.88;3.15;;;;;;;;;;4979805;28;20196;-87
2021/11/29 10:56:36;;;;;;;4.00;2.63;;;;;;;;;;4980214;28;20198;-86
2021/11/29 10:59:03;;;;;;;4.70;2.95;;;;;;;;;;4996174;28;20290;-85
2021/11/29 11:01:37;;;;;;;4.85;2.92;;;;;;;;;;4998824;28;20187;-85
2021/11/29 11:04:04;;;;;;;8.23;3.25;;;;;;;;;;4979927;28;20231;-86
2021/11/29 11:06:38;;;;;;;7.20;2.70;;;;;;;;;;4964039;28;20195;-86
2021/11/29 11:09:23;;;;;;;4.07;3.10;;;;;;;;;;4980634;28;20192;-86
2021/11/29 11:11:51;;;;;;;5.65;2.25;;;;;;;;;;4977723;28;20677;-85
2021/11/29 11:14:18;;;;;;;2.25;2.05;;;;;;;;;;4994094;28;20192;-84
2021/11/29 11:16:46;;;;;;;7.88;2.80;;;;;;;;;;4995756;28;20265;-84
2021/11/29 11:19:29;;;;;;;6.18;2.08;;;;;;;;;;4986225;28;20279;-83
2021/11/29 11:21:57;;;;;;;3.05;1.88;;;;;;;;;;4980231;28;20573;-84
2021/11/29 11:24:28;;;;;;;4.70;1.98;;;;;;;;;;4974621;28;20216;-86
2021/11/29 11:26:58;;;;;;;6.13;2.22;;;;;;;;;;4993836;28;20184;-89
2021/11/29 11:29:36;;;;;;;4.47;2.88;;;;;;;;;;4994733;28;20263;-87
2021/11/29 11:32:21;;;;;;;6.30;2.30;;;;;;;;;;4992672;28;20195;-86
2021/11/29 11:34:49;;;;;;;2.83;2.10;;;;;;;;;;4980120;28;20187;-86
2021/11/29 11:37:16;;;;;;;9.18;2.60;;;;;;;;;;4976076;28;20195;-86
2021/11/29 11:39:42;;;;;;;2.30;1.90;;;;;;;;;;4990596;28;20281;-83
2021/11/29 11:42:09;;;;;;;3.50;2.25;;;;;;;;;;4976445;28;20185;-85
2021/11/29 11:44:38;;;;;;;4.03;2.15;;;;;;;;;;4996094;28;20203;-87
2021/11/29 11:47:05;;;;;;;2.05;1.75;;;;;;;;;;4992435;28;20557;-83
2021/11/29 11:49:33;;;;;;;5.43;2.58;;;;;;;;;;4978136;28;20236;-87
2021/11/29 11:51:59;;;;;;;9.77;2.05;;;;;;;;;;4992047;28;20179;-86
2021/11/29 11:54:25;;;;;;;4.78;2.28;;;;;;;;;;4990808;28;20208;-87
2021/11/29 11:56:51;;;;;;;4.07;1.98;;;;;;;;;;4994234;28;20785;-86
2021/11/29 11:59:18;;;;;;;7.82;3.25;;;;;;;;;;4974403;28;20256;-86
2021/11/29 12:01:46;;;;;;;4.47;3.30;;;;;;;;;;4975467;28;20184;-89
2021/11/29 12:04:16;;;;;;;4.28;2.08;;;;;;;;;;4990534;28;20558;-82
2021/11/29 12:06:44;;;;;;;4.30;2.50;;;;;;;;;;4980522;28;20179;-89
2021/11/29 12:09:13;;;;;;;3.53;2.45;;;;;;;;;;4990014;28;20184;-86
2021/11/29 12:11:42;;;;;;;3.83;2.40;;;;;;;;;;4978470;28;20194;-88
2021/11/29 12:14:28;;;;;;;5.85;2.53;;;;;;;;;;5004540;28;20223;-85
2021/11/29 12:16:55;;;;;;;7.63;3.40;;;;;;;;;;4995097;28;20270;-86
2021/11/29 12:19:33;;;;;;;4.22;2.22;;;;;;;;;;4994020;28;20191;-86
2021/11/29 12:22:01;;;;;;;5.15;2.85;;;;;;;;;;4991743;28;20654;-87
2021/11/29 12:24:29;;;;;;;6.75;3.60;;;;;;;;;;4980505;28;20212;-86
2021/11/29 12:26:57;;;;;;;5.95;2.22;;;;;;;;;;4977942;28;20181;-88
2021/11/29 12:29:23;;;;;;;3.08;1.92;;;;;;;;;;4994983;28;20214;-88
2021/11/29 12:32:02;;;;;;;2.20;1.83;;;;;;;;;;4976104;28;20220;-86
2021/11/29 12:34:46;;;;;;;4.25;1.77;;;;;;;;;;4997151;28;20215;-86
2021/11/29 12:37:12;;;;;;;4.00;2.90;;;;;;;;;;5013658;28;20223;-86
2021/11/29 12:39:45;;;;;;;5.30;2.50;;;;;;;;;;4994842;28;20184;-84
2021/11/29 12:42:23;;;;;;;8.38;3.65;;;;;;;;;;4990790;28;20184;-82
2021/11/29 12:44:51;;;;;;;6.90;2.15;;;;;;;;;;4969385;28;20206;-83
2021/11/29 12:47:17;;;;;;;4.28;1.73;;;;;;;;;;5010971;28;20195;-87
2021/11/29 12:49:43;;;;;;;3.78;1.92;;;;;;;;;;4983145;28;20622;-84
2021/11/29 12:52:29;;;;;;;4.35;2.17;;;;;;;;;;4997379;28;20187;-83
2021/11/29 12:54:56;;;;;;;6.10;1.77;;;;;;;;;;4982135;28;20368;-87
2021/11/29 12:57:23;;;;;;;3.55;1.75;;;;;;;;;;4994044;28;20260;-84
2021/11/29 12:59:52;;;;;;;4.03;1.95;;;;;;;;;;4997138;28;20530;-86
2021/11/29 13:02:37;;;;;;;5.88;2.35;;;;;;;;;;4997748;28;20188;-87
2021/11/29 13:05:27;;;;;;;1.77;1.25;;;;;;;;;;4994002;28;20215;-86
2021/11/29 13:08:02;;;;;;;5.20;1.58;;;;;;;;;;4980346;28;20427;-85
2021/11/29 13:10:47;;;;;;;3.70;2.03;;;;;;;;;;4998549;28;20179;-85
2021/11/29 13:13:33;;;;;;;5.15;1.65;;;;;;;;;;5013338;28;20198;-87
2021/11/29 13:16:00;;;;;;;3.83;1.80;;;;;;;;;;4980735;28;20258;-85
2021/11/29 13:18:49;;;;;;;2.22;1.65;;;;;;;;;;5001096;28;20389;-85
2021/11/29 13:21:22;;;;;;;5.10;1.70;;;;;;;;;;4981435;28;20215;-85
2021/11/29 13:23:53;;;;;;;2.17;1.55;;;;;;;;;;4982628;28;20187;-86
2021/11/29 13:26:20;;;;;;;2.47;1.45;;;;;;;;;;4995546;28;20189;-87
2021/11/29 13:28:48;;;;;;;5.38;1.95;;;;;;;;;;4980563;28;20176;-85
2021/11/29 13:31:14;;;;;;;3.97;1.80;;;;;;;;;;5001209;28;20186;-87
2021/11/29 13:33:41;;;;;;;3.78;1.40;;;;;;;;;;4982911;28;20208;-84
2021/11/29 13:36:10;;;;;;;2.67;1.60;;;;;;;;;;4980363;28;20656;-85
2021/11/29 13:38:38;;;;;;;2.45;1.42;;;;;;;;;;4996183;28;20184;-84
2021/11/29 13:41:14;;;;;;;4.13;1.83;;;;;;;;;;4980995;28;20176;-85
2021/11/29 13:43:40;;;;;;;2.45;1.52;;;;;;;;;;4983174;28;20222;-87
2021/11/29 13:46:12;;;;;;;8.93;1.65;;;;;;;;;;4995731;28;20721;-88
2021/11/29 13:48:38;;;;;;;3.85;2.30;;;;;;;;;;4996064;28;20184;-84
2021/11/29 13:51:04;;;;;;;3.33;1.50;;;;;;;;;;4994418;28;20180;-85
2021/11/29 13:53:32;;;;;;;7.80;1.85;;;;;;;;;;4981970;28;20248;-85
2021/11/29 13:55:59;;;;;;;2.30;1.73;;;;;;;;;;4997446;28;20180;-85
2021/11/29 13:58:29;;;;;;;2.45;1.45;;;;;;;;;;4986859;28;20656;-86
2021/11/29 14:00:57;;;;;;;4.82;1.65;;;;;;;;;;4981315;28;20187;-86
2021/11/29 14:03:25;;;;;;;6.63;1.73;;;;;;;;;;4975822;28;20191;-87
2021/11/29 14:06:04;;;;;;;6.43;2.00;;;;;;;;;;4991671;28;20212;-85
2021/11/29 14:08:32;;;;;;;5.47;4.63;;;;;;;;;;4995810;28;20179;-85
2021/11/29 14:10:59;;;;;;;6.30;2.80;;;;;;;;;;4998159;28;20180;-88
2021/11/29 14:13:28;;;;;;;4.05;1.70;;;;;;;;;;4981813;28;20196;-88
2021/11/29 14:15:54;;;;;;;2.13;1.67;;;;;;;;;;4991810;28;20242;-86
2021/11/29 14:18:29;;;;;;;6.97;4.00;;;;;;;;;;4992394;28;20625;-86
2021/11/29 14:20:56;;;;;;;3.60;2.20;;;;;;;;;;4995373;28;20624;-87
2021/11/29 14:23:31;;;;;;;2.95;1.40;;;;;;;;;;4997390;28;20206;-86
2021/11/29 14:25:57;;;;;;;3.63;1.90;;;;;;;;;;4993863;28;20192;-87
2021/11/29 14:28:23;;;;;;;2.05;1.42;;;;;;;;;;4981020;28;20176;-87
2021/11/29 14:30:49;;;;;;;3.75;3.08;;;;;;;;;;4977290;28;20620;-85
2021/11/29 14:33:15;;;;;;;4.10;2.58;;;;;;;;;;4992720;28;20229;-84
2021/11/29 14:35:41;;;;;;;3.90;2.95;;;;;;;;;;4997747;28;20191;-88
2021/11/29 14:38:07;;;;;;;6.65;2.65;;;;;;;;;;4981115;28;20228;-89
2021/11/29 14:40:33;;;;;;;4.22;1.60;;;;;;;;;;4979325;28;20183;-87
2021/11/29 14:42:59;;;;;;;5.85;2.20;;;;;;;;;;4974599;28;20184;-87
2021/11/29 14:45:29;;;;;;;4.88;2.20;;;;;;;;;;4981059;28;20211;-86